»·PEaware :: N343GE KSNA-KSMF

N343GE :: KSNA-KSMF

FLIGHT INFORMATION

Flight Status: Arrived
Operator: Privately registered:
United States
More flights under this callsign
Pilot: Hyatt B. (30410)
Aircraft: BEECH AIRCRAFT PREMIER
(PRM1)
More flights by this aircraft type
Origin: KSNA John Wayne-Orange Co
United States
Destination: KSMF Sacramento Intl
United States
More flights between these airports :: More routes between these airports
Route: +CHANL3 EHF NURAY SUUTR3
File this flight plan on PilotEdge
Remarks:
Altitude:
(Current/Filed)
28,000ft
Speed:
(Current/Filed)
430kts
Departed: 28-Jul-20 02:39 PM
Arrived: 28-Jul-20 03:49 PM
Distance/Time
Traveled:
351nm/1:10
Distance/Time
To Go:
Arrived

Flight Plot

Page will automatically refresh every two minutes.

Flight plan parsing failed; only flown route is shown


Map Options




Map Legend


Flown Route
Filed Route
Departure Airport
Arrival Airport
Navaid (VOR, NDB)
Fix

Horizontal Profiles

Position Reports

Time Latitude Longitude Heading Altitude Ground
Speed
28-Jul-20 14:12 33.672641 -117.866135 259 54ft 0kts
28-Jul-20 14:13 33.672641 -117.866135 259 54ft 0kts
28-Jul-20 14:14 33.672641 -117.866135 259 54ft 0kts
28-Jul-20 14:15 33.672641 -117.866135 259 54ft 0kts
28-Jul-20 14:16 33.672641 -117.866135 259 54ft 0kts
28-Jul-20 14:18 33.672641 -117.866135 259 54ft 0kts
28-Jul-20 14:19 33.672641 -117.866135 259 54ft 0kts
28-Jul-20 14:20 33.672641 -117.866135 259 54ft 0kts
28-Jul-20 14:21 33.672641 -117.866135 259 54ft 0kts
28-Jul-20 14:22 33.672641 -117.866135 259 54ft 0kts
28-Jul-20 14:23 33.672641 -117.866135 259 54ft 0kts
28-Jul-20 14:24 33.672641 -117.866135 259 54ft 0kts
28-Jul-20 14:25 33.672641 -117.866135 259 54ft 0kts
28-Jul-20 14:26 33.672641 -117.866135 259 54ft 0kts
28-Jul-20 14:27 33.672641 -117.866135 259 54ft 0kts
28-Jul-20 14:28 33.672641 -117.866135 259 54ft 0kts
28-Jul-20 14:29 33.672641 -117.866135 259 54ft 0kts
28-Jul-20 14:30 33.672720 -117.866663 290 54ft 3kts
28-Jul-20 14:31 33.672745 -117.866741 290 54ft 0kts
28-Jul-20 14:32 33.672758 -117.866784 290 54ft 0kts
28-Jul-20 14:32 33.674049 -117.866550 26 53ft 8kts
28-Jul-20 14:34 33.677279 -117.864545 27 46ft 14kts
28-Jul-20 14:35 33.679576 -117.863089 36 52ft 6kts
28-Jul-20 14:35 33.680638 -117.863050 295 54ft 2kts
28-Jul-20 14:37 33.680703 -117.863202 296 43ft 0kts
28-Jul-20 14:37 33.681244 -117.864424 296 43ft 11kts
28-Jul-20 14:38 33.667008 -117.874339 207 305ft 167kts
28-Jul-20 14:40 33.602054 -117.893736 187 3451ft 236kts
28-Jul-20 14:40 33.550953 -117.917393 212 5617ft 241kts
28-Jul-20 14:41 33.494605 -117.962191 213 7849ft 254kts
28-Jul-20 14:42 33.434864 -118.009919 213 9844ft 263kts
28-Jul-20 14:43 33.371451 -118.060563 213 11188ft 284kts
28-Jul-20 14:44 33.338431 -118.145132 280 13302ft 322kts
28-Jul-20 14:45 33.353021 -118.253576 279 15176ft 342kts
28-Jul-20 14:46 33.364658 -118.339368 276 16479ft 353kts
28-Jul-20 14:47 33.413828 -118.436202 341 18096ft 378kts
28-Jul-20 14:48 33.518949 -118.423333 359 19469ft 389kts
28-Jul-20 14:49 33.627939 -118.425362 357 20730ft 396kts
28-Jul-20 14:50 33.738586 -118.427766 357 21872ft 403kts
28-Jul-20 14:51 33.851459 -118.430216 356 22924ft 409kts
28-Jul-20 14:52 33.965511 -118.437559 349 24101ft 413kts
28-Jul-20 14:53 34.080181 -118.456822 348 25230ft 419kts
28-Jul-20 14:54 34.196244 -118.476495 348 26173ft 426kts
28-Jul-20 14:55 34.314274 -118.496550 348 27009ft 431kts
28-Jul-20 14:56 34.433484 -118.516865 348 27787ft 435kts
28-Jul-20 14:57 34.554346 -118.537552 348 27990ft 448kts
28-Jul-20 14:58 34.679073 -118.558925 348 27980ft 458kts
28-Jul-20 14:59 34.805462 -118.580645 348 28038ft 461kts
28-Jul-20 15:00 34.932578 -118.602519 348 28116ft 463kts
28-Jul-20 15:01 35.051418 -118.650467 319 28106ft 447kts
28-Jul-20 15:02 35.144183 -118.749764 315 28014ft 446kts
28-Jul-20 15:03 35.239817 -118.847029 315 27881ft 448kts
28-Jul-20 15:04 35.335304 -118.944399 314 27880ft 448kts
28-Jul-20 15:05 35.430968 -119.042296 314 27880ft 450kts
28-Jul-20 15:06 35.536588 -119.126274 333 27883ft 466kts
28-Jul-20 15:07 35.655104 -119.188818 331 27880ft 465kts
28-Jul-20 15:08 35.773510 -119.252612 331 27883ft 466kts
28-Jul-20 15:09 35.891781 -119.316546 331 27887ft 466kts
28-Jul-20 15:10 36.010577 -119.380964 331 27904ft 466kts
28-Jul-20 15:11 36.128906 -119.445350 331 27895ft 466kts
28-Jul-20 15:12 36.247226 -119.509939 331 27893ft 465kts
28-Jul-20 15:13 36.365547 -119.574748 331 27894ft 465kts
28-Jul-20 15:14 36.483332 -119.639478 331 27894ft 465kts
28-Jul-20 15:15 36.600943 -119.706212 324 27900ft 461kts
28-Jul-20 15:16 36.709253 -119.790267 322 27902ft 459kts
28-Jul-20 15:17 36.817346 -119.875148 322 27860ft 460kts
28-Jul-20 15:18 36.925467 -119.960328 322 27863ft 458kts
28-Jul-20 15:19 37.032391 -120.044900 322 27865ft 452kts
28-Jul-20 15:20 37.138363 -120.128983 322 27858ft 448kts
28-Jul-20 15:21 37.243088 -120.212285 322 27849ft 446kts
28-Jul-20 15:22 37.347280 -120.295498 322 27522ft 442kts
28-Jul-20 15:23 37.451152 -120.378809 323 25992ft 444kts
28-Jul-20 15:24 37.547914 -120.472146 317 24074ft 432kts
28-Jul-20 15:25 37.640583 -120.565152 318 22060ft 421kts
28-Jul-20 15:26 37.730853 -120.655760 318 20057ft 411kts
28-Jul-20 15:27 37.817931 -120.743616 318 18551ft 387kts
28-Jul-20 15:28 37.900100 -120.826901 319 16578ft 371kts
28-Jul-20 15:29 37.978148 -120.906118 319 15555ft 344kts
28-Jul-20 15:30 38.052706 -120.982049 319 15569ft 345kts
28-Jul-20 15:31 38.118678 -121.069380 308 15544ft 344kts
28-Jul-20 15:32 38.181598 -121.162313 308 15467ft 350kts
28-Jul-20 15:33 38.248223 -121.253666 312 15464ft 355kts
28-Jul-20 15:34 38.318454 -121.342714 313 15398ft 357kts
28-Jul-20 15:35 38.388695 -121.431921 313 15230ft 358kts
28-Jul-20 15:36 38.458452 -121.520797 313 13363ft 349kts
28-Jul-20 15:37 38.529483 -121.596766 320 11338ft 309kts
28-Jul-20 15:38 38.593647 -121.661560 320 9173ft 284kts
28-Jul-20 15:39 38.665888 -121.688674 354 6679ft 280kts
28-Jul-20 15:40 38.741705 -121.697747 353 4429ft 245kts
28-Jul-20 15:41 38.808939 -121.705664 353 2943ft 244kts
28-Jul-20 15:42 38.874244 -121.713413 353 2837ft 231kts
28-Jul-20 15:43 38.907052 -121.665709 101 2843ft 228kts
28-Jul-20 15:44 38.865214 -121.616564 162 2835ft 223kts
28-Jul-20 15:45 38.807723 -121.587531 159 2832ft 222kts
28-Jul-20 15:46 38.751554 -121.595616 212 1487ft 163kts
28-Jul-20 15:47 38.713500 -121.600999 181 214ft 121kts
28-Jul-20 15:48 38.691108 -121.601333 165 26ft 16kts
28-Jul-20 15:49 38.690572 -121.597455 91 27ft 8kts
28-Jul-20 15:50 38.690950 -121.596080 84 29ft 0kts
28-Jul-20 15:51 38.690950 -121.596080 84 29ft 0kts
28-Jul-20 15:52 38.690950 -121.596080 84 29ft 0kts
28-Jul-20 15:53 38.690950 -121.596080 84 29ft 0kts
28-Jul-20 15:54 38.690950 -121.596080 84 29ft 0kts
28-Jul-20 15:55 38.690950 -121.596080 84 29ft 0kts
28-Jul-20 15:56 38.690950 -121.596080 84 29ft 0kts
28-Jul-20 15:57 38.690950 -121.596080 84 29ft 0kts
28-Jul-20 15:58 38.690950 -121.596080 84 29ft 0kts
28-Jul-20 15:59 38.690950 -121.596080 84 29ft 0kts
28-Jul-20 16:00 38.690950 -121.596080 84 29ft 0kts
28-Jul-20 16:01 38.690950 -121.596080 84 29ft 0kts
28-Jul-20 16:02 38.690950 -121.596080 84 29ft 0kts

Navigation Log

Ident Type
Flight plan parsing failed, navigation log unavailable